Time;durP1;ratioP1;P1;durP2;ratioP2;P2;SDS_P1;SDS_P2;PMS_P1;PMS_P2;Temp;Humidity;BMP_temperature;BMP_pressure;BME280_temperature;BME280_humidity;BME280_pressure;Samples;Min_cycle;Max_cycle;Signal;HPM_P1;HPM_P2
2022/01/02 00:00:19;;;;;;;9.00;5.55;;;11.60;74.90;;;;;;5065841;28;20024;-68
2022/01/02 00:02:55;;;;;;;12.00;6.13;;;11.60;75.10;;;;;;5068670;28;20039;-68
2022/01/02 00:05:22;;;;;;;9.55;5.53;;;11.50;75.20;;;;;;5071352;28;20535;-70
2022/01/02 00:08:02;;;;;;;11.05;5.90;;;11.50;75.20;;;;;;5072095;28;20029;-65
2022/01/02 00:10:37;;;;;;;9.15;5.78;;;11.50;75.20;;;;;;5070823;28;20025;-72
2022/01/02 00:13:05;;;;;;;9.95;5.75;;;11.60;75.10;;;;;;5060099;28;20032;-71
2022/01/02 00:15:34;;;;;;;11.88;5.43;;;11.70;75.00;;;;;;5050447;28;20064;-77
2022/01/02 00:18:08;;;;;;;11.02;5.63;;;11.60;74.90;;;;;;5064635;28;20485;-78
2022/01/02 00:20:52;;;;;;;8.30;5.00;;;11.70;74.60;;;;;;5067349;28;20083;-79
2022/01/02 00:23:23;;;;;;;9.90;5.30;;;11.70;74.50;;;;;;5070866;28;20023;-73
2022/01/02 00:25:55;;;;;;;7.55;4.70;;;11.70;74.30;;;;;;5070231;28;20020;-69
2022/01/02 00:28:21;;;;;;;7.82;5.20;;;11.70;74.20;;;;;;5070563;28;20039;-70
2022/01/02 00:30:48;;;;;;;9.55;5.32;;;11.70;74.10;;;;;;5070050;28;20140;-69
2022/01/02 00:33:15;;;;;;;9.90;5.45;;;11.70;74.10;;;;;;5064503;28;20020;-70
2022/01/02 00:35:41;;;;;;;10.60;5.43;;;11.70;74.10;;;;;;5067164;28;20428;-70
2022/01/02 00:38:14;;;;;;;8.32;5.47;;;11.60;74.10;;;;;;5069600;28;20470;-68
2022/01/02 00:40:43;;;;;;;9.05;5.57;;;11.60;74.30;;;;;;5069849;28;20086;-68
2022/01/02 00:43:13;;;;;;;9.82;5.75;;;11.60;75.00;;;;;;5068070;28;20150;-72
2022/01/02 00:45:46;;;;;;;9.07;5.47;;;11.50;74.40;;;;;;5076190;28;20024;-70
2022/01/02 00:48:17;;;;;;;9.13;5.30;;;11.60;74.40;;;;;;5064633;28;20105;-73
2022/01/02 00:50:49;;;;;;;8.48;5.35;;;11.60;74.30;;;;;;5065833;28;20119;-70
2022/01/02 00:53:18;;;;;;;9.45;5.03;;;11.60;74.20;;;;;;5067276;28;20445;-70
2022/01/02 00:55:46;;;;;;;8.88;5.40;;;11.60;74.10;;;;;;5077168;28;20032;-69
2022/01/02 00:58:14;;;;;;;11.27;5.07;;;11.60;74.00;;;;;;5073187;28;20032;-70
2022/01/02 01:00:50;;;;;;;9.27;5.18;;;11.60;74.00;;;;;;5070350;28;20104;-70
2022/01/02 01:03:31;;;;;;;7.43;5.40;;;11.60;73.90;;;;;;5062773;28;20024;-71
2022/01/02 01:06:03;;;;;;;9.00;5.85;;;11.60;73.90;;;;;;5064089;28;20036;-69
2022/01/02 01:08:31;;;;;;;10.18;5.82;;;11.60;73.90;;;;;;5065455;28;20477;-70
2022/01/02 01:10:58;;;;;;;12.30;6.03;;;11.60;73.90;;;;;;5072083;28;20037;-71
2022/01/02 01:13:24;;;;;;;12.10;6.95;;;11.60;74.10;;;;;;5076180;28;20137;-72
2022/01/02 01:15:50;;;;;;;9.75;6.13;;;11.50;74.20;;;;;;5064482;28;20059;-71
2022/01/02 01:18:16;;;;;;;14.98;6.85;;;11.40;74.40;;;;;;5066471;28;20066;-71
2022/01/02 01:20:43;;;;;;;12.15;7.13;;;11.30;74.40;;;;;;5072033;28;20024;-70
2022/01/02 01:23:15;;;;;;;12.57;6.97;;;11.30;74.70;;;;;;5078170;28;20020;-71
2022/01/02 01:25:44;;;;;;;10.18;6.35;;;11.20;74.70;;;;;;5072741;28;20044;-69
2022/01/02 01:28:10;;;;;;;12.40;6.50;;;11.20;74.80;;;;;;5062282;28;20040;-69
2022/01/02 01:30:36;;;;;;;12.57;7.15;;;11.20;74.80;;;;;;5072951;28;20028;-69
2022/01/02 01:33:01;;;;;;;11.13;6.60;;;11.10;74.80;;;;;;5060911;28;20103;-70
2022/01/02 01:35:27;;;;;;;10.45;5.97;;;11.10;74.90;;;;;;5066835;28;20506;-68
2022/01/02 01:37:53;;;;;;;10.98;6.10;;;11.00;74.90;;;;;;5069379;28;20458;-71
2022/01/02 01:40:20;;;;;;;11.07;5.63;;;10.90;75.00;;;;;;5066792;28;20047;-71
2022/01/02 01:42:59;;;;;;;10.55;5.90;;;10.80;75.00;;;;;;5073151;28;20033;-71
2022/01/02 01:45:29;;;;;;;12.80;6.18;;;10.70;75.30;;;;;;5072696;28;20024;-70
2022/01/02 01:48:01;;;;;;;11.57;5.75;;;10.70;75.40;;;;;;5074359;28;20515;-71
2022/01/02 01:50:30;;;;;;;10.20;5.82;;;10.60;75.40;;;;;;5069327;28;20741;-71
2022/01/02 01:52:56;;;;;;;10.32;5.70;;;10.60;75.50;;;;;;5079433;28;20077;-71
2022/01/02 01:55:22;;;;;;;13.15;6.32;;;10.60;75.50;;;;;;5074591;28;20074;-71
2022/01/02 01:57:51;;;;;;;9.55;5.57;;;10.70;75.50;;;;;;5067006;28;20473;-71
2022/01/02 02:00:19;;;;;;;8.02;5.82;;;10.70;75.50;;;;;;5072012;28;20111;-71
2022/01/02 02:02:45;;;;;;;10.15;5.80;;;10.70;75.30;;;;;;5079305;28;20082;-70
2022/01/02 02:05:12;;;;;;;9.85;5.82;;;10.70;75.20;;;;;;5075121;28;20024;-72
2022/01/02 02:07:42;;;;;;;11.00;5.55;;;10.70;75.10;;;;;;5064555;28;20058;-67
2022/01/02 02:10:17;;;;;;;8.88;5.38;;;10.70;75.10;;;;;;5065783;28;20039;-68
2022/01/02 02:12:46;;;;;;;9.93;5.20;;;10.70;75.10;;;;;;5080367;28;20262;-70
2022/01/02 02:15:15;;;;;;;8.77;5.47;;;10.70;75.10;;;;;;5072320;28;20032;-69
2022/01/02 02:17:43;;;;;;;9.38;5.65;;;10.70;75.10;;;;;;5071469;28;20062;-67
2022/01/02 02:20:17;;;;;;;9.18;5.68;;;10.70;75.10;;;;;;5061785;28;20563;-70
2022/01/02 02:22:46;;;;;;;10.05;5.35;;;10.70;75.10;;;;;;5075028;28;20039;-70
2022/01/02 02:25:18;;;;;;;8.63;5.68;;;10.70;75.20;;;;;;5072982;28;20028;-70
2022/01/02 02:27:54;;;;;;;9.73;5.78;;;10.70;75.10;;;;;;5073286;28;20115;-70
2022/01/02 02:30:21;;;;;;;8.50;5.20;;;10.60;75.00;;;;;;5074771;28;20052;-72
2022/01/02 02:32:47;;;;;;;9.77;5.60;;;10.70;75.10;;;;;;5071253;28;20021;-71
2022/01/02 02:35:14;;;;;;;11.43;6.25;;;10.60;75.10;;;;;;5077294;28;20108;-72
2022/01/02 02:37:42;;;;;;;13.23;5.90;;;10.60;75.10;;;;;;5072756;28;20098;-67
2022/01/02 02:40:10;;;;;;;11.45;5.22;;;10.60;75.10;;;;;;5075805;28;20035;-71
2022/01/02 02:51:28;;;;;;;8.57;4.97;;;10.60;75.00;;;;;;5061538;28;20037;-69
2022/01/02 02:53:54;;;;;;;11.50;5.93;;;10.70;74.90;;;;;;5074767;28;20059;-70
2022/01/02 02:56:24;;;;;;;10.63;5.75;;;10.70;74.90;;;;;;5075667;28;20032;-69
2022/01/02 02:58:52;;;;;;;11.32;5.60;;;10.70;74.80;;;;;;5073414;28;20029;-69
2022/01/02 03:01:20;;;;;;;9.63;5.25;;;10.70;74.80;;;;;;5077261;28;20024;-70
2022/01/02 03:03:46;;;;;;;10.65;6.05;;;10.60;74.90;;;;;;5077300;28;20032;-70
2022/01/02 03:06:13;;;;;;;9.90;6.05;;;10.60;74.90;;;;;;5074130;28;20021;-70
2022/01/02 03:08:41;;;;;;;12.38;6.05;;;10.60;74.80;;;;;;5074228;28;20039;-66
2022/01/02 03:11:12;;;;;;;9.45;5.72;;;10.60;74.70;;;;;;5070642;28;20082;-71
2022/01/02 03:13:39;;;;;;;8.27;5.65;;;10.50;74.70;;;;;;5073216;28;20043;-72
2022/01/02 03:16:05;;;;;;;10.18;5.90;;;10.40;74.80;;;;;;5073531;28;20539;-70
2022/01/02 03:18:31;;;;;;;13.40;5.75;;;10.40;74.90;;;;;;5074542;28;20032;-70
2022/01/02 03:20:57;;;;;;;8.57;5.50;;;10.30;74.90;;;;;;5074278;28;20020;-69
2022/01/02 03:23:22;;;;;;;14.52;5.80;;;10.20;75.10;;;;;;5074395;28;20024;-71
2022/01/02 03:25:48;;;;;;;11.05;5.50;;;10.10;75.20;;;;;;5073384;28;20028;-69
2022/01/02 03:28:14;;;;;;;10.40;5.05;;;10.10;75.50;;;;;;5074456;28;20036;-71
2022/01/02 03:30:41;;;;;;;8.57;4.93;;;10.00;75.60;;;;;;5075027;28;20024;-65
2022/01/02 03:33:07;;;;;;;11.27;5.22;;;10.00;75.80;;;;;;5072520;28;20503;-70
2022/01/02 03:35:32;;;;;;;9.32;5.30;;;9.90;75.80;;;;;;5075062;28;20489;-70
2022/01/02 03:37:58;;;;;;;10.48;5.55;;;9.90;76.00;;;;;;5070295;28;20024;-70
2022/01/02 03:40:24;;;;;;;11.30;5.47;;;9.80;76.10;;;;;;5074415;28;20020;-71
2022/01/02 03:42:50;;;;;;;8.82;5.40;;;9.80;76.10;;;;;;5072841;28;20159;-70
2022/01/02 03:45:15;;;;;;;10.13;5.40;;;9.80;76.10;;;;;;5073917;28;20044;-70
2022/01/02 03:47:41;;;;;;;10.90;5.30;;;9.80;76.10;;;;;;5076142;28;20040;-70
2022/01/02 03:50:07;;;;;;;11.27;5.47;;;9.80;76.10;;;;;;5070737;28;20035;-71
2022/01/02 03:52:33;;;;;;;8.98;4.60;;;9.80;76.00;;;;;;5070060;28;20029;-70
2022/01/02 03:54:58;;;;;;;8.00;4.88;;;9.90;76.20;;;;;;5073817;28;20460;-70
2022/01/02 03:57:24;;;;;;;7.40;4.40;;;9.90;76.20;;;;;;5075080;28;20082;-70
2022/01/02 03:59:50;;;;;;;11.27;5.10;;;9.90;76.10;;;;;;5073355;28;20063;-71
2022/01/02 04:02:16;;;;;;;8.77;4.80;;;9.90;76.10;;;;;;5074862;28;20028;-70
2022/01/02 04:04:42;;;;;;;9.63;5.20;;;9.80;76.40;;;;;;5071058;28;20108;-70
2022/01/02 04:07:08;;;;;;;8.45;4.45;;;9.80;76.50;;;;;;5072319;28;20095;-70
2022/01/02 04:09:34;;;;;;;7.88;4.63;;;9.70;77.20;;;;;;5088699;28;20040;-70
2022/01/02 04:11:59;;;;;;;7.82;4.40;;;9.70;76.60;;;;;;5074491;28;20106;-69
2022/01/02 04:14:25;;;;;;;7.13;4.28;;;9.80;76.70;;;;;;5075489;28;20436;-70
2022/01/02 04:16:51;;;;;;;9.05;4.70;;;9.70;76.50;;;;;;5072588;28;20417;-70
2022/01/02 04:19:17;;;;;;;8.38;4.30;;;9.70;76.50;;;;;;5069402;28;20453;-71
2022/01/02 04:21:42;;;;;;;11.98;4.55;;;9.80;76.40;;;;;;5070639;28;20048;-70
2022/01/02 04:24:08;;;;;;;9.57;4.60;;;9.80;76.40;;;;;;5073789;28;20032;-70
2022/01/02 04:26:34;;;;;;;8.23;4.68;;;9.80;76.20;;;;;;5072821;28;20032;-70
2022/01/02 04:29:00;;;;;;;7.95;4.82;;;9.90;76.20;;;;;;5074014;28;20036;-71
2022/01/02 04:31:25;;;;;;;9.18;4.68;;;9.90;76.10;;;;;;5073986;28;20032;-70
2022/01/02 04:33:51;;;;;;;6.40;4.30;;;9.90;76.10;;;;;;5074280;28;20026;-69
2022/01/02 04:36:17;;;;;;;7.05;4.35;;;9.80;76.10;;;;;;5074678;28;20402;-69
2022/01/02 04:38:44;;;;;;;8.75;4.68;;;9.80;76.20;;;;;;5085146;28;20036;-69
2022/01/02 04:41:10;;;;;;;6.65;4.28;;;9.80;76.20;;;;;;5068505;28;20027;-68
2022/01/02 04:43:36;;;;;;;7.10;4.90;;;9.80;76.20;;;;;;5072757;28;20032;-69
2022/01/02 04:46:02;;;;;;;8.35;4.40;;;9.90;76.20;;;;;;5071038;28;20020;-69
2022/01/02 04:48:28;;;;;;;8.63;4.38;;;9.80;76.10;;;;;;5078489;28;20068;-70
2022/01/02 04:50:54;;;;;;;6.78;4.50;;;9.80;76.10;;;;;;5075122;28;20039;-69
2022/01/02 04:53:21;;;;;;;10.43;4.95;;;9.80;76.30;;;;;;5076352;28;20051;-71
2022/01/02 04:55:47;;;;;;;8.23;4.57;;;9.80;76.30;;;;;;5075365;28;20025;-71
2022/01/02 04:58:13;;;;;;;8.43;5.18;;;9.80;76.30;;;;;;5077326;28;20492;-70
2022/01/02 05:00:39;;;;;;;10.77;4.85;;;9.80;76.20;;;;;;5078975;28;20024;-70
2022/01/02 05:03:05;;;;;;;7.60;5.10;;;9.90;76.10;;;;;;5074243;28;20286;-70
2022/01/02 05:05:31;;;;;;;7.72;5.00;;;9.90;76.00;;;;;;5076120;28;20465;-70
2022/01/02 05:07:57;;;;;;;8.57;5.35;;;9.90;76.00;;;;;;5074448;28;20028;-69
2022/01/02 05:10:23;;;;;;;11.18;5.20;;;9.90;75.80;;;;;;5088691;28;20032;-71
2022/01/02 05:12:48;;;;;;;8.65;5.35;;;10.00;75.80;;;;;;5087202;28;20476;-71
2022/01/02 05:15:14;;;;;;;11.05;5.03;;;10.00;75.70;;;;;;5075909;28;20106;-70
2022/01/02 05:17:40;;;;;;;15.32;5.70;;;10.00;75.60;;;;;;5075082;28;20051;-72
2022/01/02 05:20:06;;;;;;;7.95;5.28;;;10.00;75.60;;;;;;5088161;28;20060;-71
2022/01/02 05:22:32;;;;;;;9.73;4.80;;;9.90;75.60;;;;;;5084648;28;20032;-69
2022/01/02 05:24:58;;;;;;;9.98;5.88;;;9.90;75.60;;;;;;5077173;28;20492;-70
2022/01/02 05:27:23;;;;;;;10.75;6.30;;;9.80;75.60;;;;;;5077964;28;20056;-70
2022/01/02 05:29:49;;;;;;;11.93;6.72;;;9.80;75.60;;;;;;5073549;28;20028;-69
2022/01/02 05:32:15;;;;;;;12.50;6.88;;;9.80;75.60;;;;;;5088948;28;20028;-70
2022/01/02 05:34:40;;;;;;;13.80;6.70;;;9.80;75.60;;;;;;5094224;28;20056;-69
2022/01/02 05:37:06;;;;;;;10.25;5.95;;;9.80;75.60;;;;;;5083970;28;20025;-71
2022/01/02 05:39:32;;;;;;;9.45;6.00;;;9.70;75.60;;;;;;5074953;28;20136;-71
2022/01/02 05:41:58;;;;;;;8.95;5.68;;;9.70;75.80;;;;;;5078147;28;20028;-70
2022/01/02 05:44:23;;;;;;;8.32;5.40;;;9.60;75.80;;;;;;5088766;28;20039;-70
2022/01/02 05:46:49;;;;;;;11.02;5.45;;;9.60;75.80;;;;;;5076927;28;20023;-70
2022/01/02 05:49:15;;;;;;;9.15;5.25;;;9.50;75.90;;;;;;5092465;28;20060;-70
2022/01/02 05:51:42;;;;;;;8.52;5.15;;;9.40;75.90;;;;;;5076075;28;20448;-70
2022/01/02 05:54:07;;;;;;;8.55;4.97;;;9.40;75.90;;;;;;5089283;28;20051;-70
2022/01/02 05:56:34;;;;;;;8.13;5.32;;;9.40;76.00;;;;;;5091353;28;20110;-70
2022/01/02 05:58:59;;;;;;;9.73;5.32;;;9.50;76.00;;;;;;5082573;28;20090;-71
2022/01/02 06:01:25;;;;;;;9.13;4.95;;;9.40;75.90;;;;;;5087000;28;20463;-70
2022/01/02 06:03:51;;;;;;;12.18;5.18;;;9.50;75.90;;;;;;5073050;28;20032;-70
2022/01/02 06:06:17;;;;;;;8.98;5.20;;;9.50;75.90;;;;;;5082388;28;20063;-70
2022/01/02 06:08:43;;;;;;;8.07;5.38;;;9.50;75.80;;;;;;5091007;28;20036;-70
2022/01/02 06:11:10;;;;;;;9.15;5.22;;;9.60;75.70;;;;;;5089917;28;20093;-70
2022/01/02 06:13:36;;;;;;;9.45;5.07;;;9.60;75.70;;;;;;5072321;28;20032;-70
2022/01/02 06:16:02;;;;;;;8.48;5.45;;;9.60;75.60;;;;;;5075299;28;20183;-70
2022/01/02 06:18:28;;;;;;;11.43;5.40;;;9.60;75.40;;;;;;5090309;28;20028;-70
2022/01/02 06:20:54;;;;;;;9.25;5.13;;;9.60;75.40;;;;;;5079629;28;20368;-70
2022/01/02 06:23:19;;;;;;;10.23;5.07;;;9.70;75.30;;;;;;5072026;28;20535;-71
2022/01/02 06:25:46;;;;;;;8.63;5.28;;;9.70;75.20;;;;;;5072298;28;20036;-70
2022/01/02 06:28:12;;;;;;;10.25;4.93;;;9.70;74.90;;;;;;5080633;28;20483;-70
2022/01/02 06:30:38;;;;;;;10.55;5.65;;;9.70;74.80;;;;;;5089329;28;20020;-71
2022/01/02 06:33:04;;;;;;;10.05;5.20;;;9.70;74.60;;;;;;5078976;28;20099;-70
2022/01/02 06:35:34;;;;;;;8.90;4.82;;;9.70;74.50;;;;;;5083970;28;20024;-70
2022/01/02 06:38:16;;;;;;;9.13;5.35;;;9.70;74.40;;;;;;5088444;28;20471;-70
2022/01/02 06:40:42;;;;;;;9.05;5.32;;;9.70;74.40;;;;;;5088954;28;20020;-70
2022/01/02 06:43:08;;;;;;;11.43;6.88;;;9.70;74.50;;;;;;5080815;28;20112;-70
2022/01/02 06:45:37;;;;;;;12.05;7.05;;;9.70;74.90;;;;;;5072098;28;20034;-70
2022/01/02 06:48:03;;;;;;;15.93;7.53;;;9.60;75.30;;;;;;5074374;28;20135;-73
2022/01/02 06:50:29;;;;;;;12.80;7.50;;;9.60;75.70;;;;;;5072354;28;20039;-70
2022/01/02 06:53:13;;;;;;;14.00;8.63;;;9.60;76.00;;;;;;5084238;28;20051;-70
2022/01/02 06:55:39;;;;;;;11.93;7.90;;;9.50;76.10;;;;;;5052562;28;20466;-70
2022/01/02 06:58:06;;;;;;;12.55;8.52;;;9.50;76.40;;;;;;5082634;28;20035;-71
2022/01/02 07:00:32;;;;;;;12.45;8.00;;;9.50;76.40;;;;;;5089388;28;20522;-70
2022/01/02 07:02:58;;;;;;;10.90;7.20;;;9.50;76.70;;;;;;5078316;28;20024;-72
2022/01/02 07:05:24;;;;;;;13.70;7.93;;;9.40;76.60;;;;;;5089962;28;20505;-69
2022/01/02 07:07:52;;;;;;;11.18;8.05;;;9.40;76.80;;;;;;5085873;28;20040;-69
2022/01/02 07:10:18;;;;;;;12.40;8.38;;;9.30;77.20;;;;;;5068840;28;20043;-69
2022/01/02 07:12:44;;;;;;;15.50;8.23;;;9.30;77.50;;;;;;5075187;28;20048;-66
2022/01/02 07:15:10;;;;;;;12.82;8.20;;;9.20;77.70;;;;;;5089651;28;20106;-69
2022/01/02 07:17:36;;;;;;;14.35;8.43;;;9.30;77.80;;;;;;5073890;28;20064;-70
2022/01/02 07:20:06;;;;;;;11.35;5.68;;;9.30;77.40;;;;;;5087034;28;20502;-70
2022/01/02 07:22:32;;;;;;;9.75;5.63;;;9.40;76.90;;;;;;5078986;28;20051;-69
2022/01/02 07:24:58;;;;;;;10.98;7.75;;;9.50;76.20;;;;;;5082663;28;20020;-70
2022/01/02 07:27:24;;;;;;;14.45;8.05;;;9.50;76.10;;;;;;5079179;28;20404;-71
2022/01/02 07:29:51;;;;;;;13.95;7.90;;;9.50;76.10;;;;;;5084452;28;20025;-71
2022/01/02 07:32:17;;;;;;;10.90;8.35;;;9.50;76.30;;;;;;5073119;28;20067;-69
2022/01/02 07:34:43;;;;;;;15.02;9.50;;;9.50;76.10;;;;;;5088419;28;20036;-70
2022/01/02 07:37:12;;;;;;;13.27;8.80;;;9.50;76.00;;;;;;5082242;28;20025;-70
2022/01/02 07:39:38;;;;;;;21.10;19.00;;;9.40;76.00;;;;;;5069903;28;20079;-69
2022/01/02 07:42:04;;;;;;;24.20;21.83;;;9.90;78.10;;;;;;5069308;28;20520;-69
2022/01/02 07:44:30;;;;;;;14.10;10.50;;;11.60;73.20;;;;;;5074270;28;20109;-69
2022/01/02 07:46:56;;;;;;;10.80;9.32;;;12.20;69.10;;;;;;5070406;28;20108;-71
2022/01/02 07:49:22;;;;;;;9.18;5.30;;;12.10;67.70;;;;;;5073502;28;20033;-72
2022/01/02 07:51:47;;;;;;;9.32;4.70;;;11.80;67.50;;;;;;5078021;28;20059;-67
2022/01/02 07:54:13;;;;;;;11.25;5.63;;;11.40;67.40;;;;;;5073421;28;20029;-69
2022/01/02 07:56:40;;;;;;;11.38;8.48;;;11.00;67.90;;;;;;5071246;28;20112;-71
2022/01/02 07:59:06;;;;;;;12.93;7.60;;;10.70;68.90;;;;;;5072003;28;20092;-71
2022/01/02 08:01:32;;;;;;;14.52;8.45;;;10.40;70.10;;;;;;5087113;28;20040;-70
2022/01/02 08:03:58;;;;;;;10.77;8.93;;;10.40;71.00;;;;;;5085821;28;20119;-69
2022/01/02 08:06:24;;;;;;;10.93;8.02;;;10.30;71.20;;;;;;5090395;28;20059;-69
2022/01/02 08:08:50;;;;;;;13.10;9.02;;;10.10;71.70;;;;;;5071492;28;20048;-69
2022/01/02 08:11:16;;;;;;;11.85;8.35;;;10.00;72.30;;;;;;5071363;28;20047;-69
2022/01/02 08:13:43;;;;;;;10.27;7.85;;;9.80;72.70;;;;;;5073297;28;20032;-70
2022/01/02 08:16:09;;;;;;;11.20;8.50;;;9.80;73.20;;;;;;5086502;28;20020;-70
2022/01/02 08:18:35;;;;;;;13.10;8.57;;;9.70;73.50;;;;;;5085978;28;20405;-71
2022/01/02 08:21:01;;;;;;;10.95;7.63;;;9.70;73.90;;;;;;5085335;28;20038;-69
2022/01/02 08:23:26;;;;;;;15.82;9.15;;;9.70;74.00;;;;;;5083216;28;20734;-70
2022/01/02 08:25:52;;;;;;;12.15;8.90;;;9.60;74.30;;;;;;5070492;28;20055;-68
2022/01/02 08:28:19;;;;;;;9.98;7.90;;;9.80;74.30;;;;;;5073427;28;20411;-70
2022/01/02 08:30:45;;;;;;;11.20;8.05;;;9.90;73.70;;;;;;5078330;28;20090;-66
2022/01/02 08:33:11;;;;;;;12.95;9.35;;;10.00;73.60;;;;;;5080006;28;20024;-69
2022/01/02 08:35:37;;;;;;;11.95;8.82;;;10.00;73.00;;;;;;5089402;28;20027;-69
2022/01/02 08:38:03;;;;;;;12.27;8.90;;;10.00;73.00;;;;;;5089017;28;20036;-70
2022/01/02 08:40:30;;;;;;;14.45;9.35;;;10.10;73.00;;;;;;5082329;28;20029;-72
2022/01/02 08:42:55;;;;;;;12.25;9.10;;;10.00;72.90;;;;;;5070401;28;20024;-70
2022/01/02 08:45:21;;;;;;;12.85;9.05;;;10.00;73.00;;;;;;5069291;28;20492;-71
2022/01/02 08:47:47;;;;;;;12.60;8.60;;;10.10;73.10;;;;;;5069640;28;20036;-70
2022/01/02 08:50:13;;;;;;;12.05;9.73;;;10.20;73.60;;;;;;5077699;28;20491;-72
2022/01/02 08:52:39;;;;;;;12.68;9.43;;;10.30;73.00;;;;;;5076757;28;20115;-71
2022/01/02 08:55:05;;;;;;;12.88;9.13;;;10.30;72.60;;;;;;5068342;28;20090;-71
2022/01/02 08:57:31;;;;;;;12.05;8.82;;;10.40;73.40;;;;;;5085169;28;20020;-72
2022/01/02 08:59:57;;;;;;;12.40;9.60;;;10.40;72.70;;;;;;5069638;28;20431;-70
2022/01/02 09:02:22;;;;;;;16.30;11.20;;;10.40;72.70;;;;;;5067169;28;20025;-70
2022/01/02 09:04:48;;;;;;;15.43;12.05;;;10.50;72.60;;;;;;5070980;28;20108;-71
2022/01/02 09:07:14;;;;;;;17.35;11.88;;;10.60;72.40;;;;;;5070708;28;20024;-70
2022/01/02 09:09:40;;;;;;;15.02;12.00;;;10.60;72.30;;;;;;5068242;28;20032;-70
2022/01/02 09:12:07;;;;;;;14.18;11.57;;;10.70;72.20;;;;;;5067901;28;20052;-71
2022/01/02 09:14:33;;;;;;;15.27;11.55;;;10.80;71.80;;;;;;5069985;28;20469;-70
2022/01/02 09:16:59;;;;;;;16.75;12.15;;;10.70;72.10;;;;;;5085011;28;20028;-71
2022/01/02 09:19:24;;;;;;;15.48;11.52;;;10.70;72.40;;;;;;5070319;28;20024;-70
2022/01/02 09:21:50;;;;;;;12.90;11.40;;;10.60;72.70;;;;;;5069168;28;20033;-69
2022/01/02 09:24:16;;;;;;;14.63;11.85;;;10.60;72.80;;;;;;5069963;28;20060;-70
2022/01/02 09:27:00;;;;;;;15.30;12.15;;;10.60;72.90;;;;;;5069480;28;20024;-69
2022/01/02 09:29:26;;;;;;;16.27;11.48;;;10.40;73.40;;;;;;5060966;28;20041;-72
2022/01/02 09:31:52;;;;;;;14.45;12.00;;;10.50;73.60;;;;;;5068192;28;20051;-71
2022/01/02 09:34:17;;;;;;;15.77;12.80;;;10.60;73.50;;;;;;5063584;28;20033;-74
2022/01/02 09:36:43;;;;;;;25.05;19.27;;;10.60;73.10;;;;;;5067804;28;20064;-74
2022/01/02 09:39:09;;;;;;;17.65;13.10;;;10.70;73.30;;;;;;5071550;28;20112;-73
2022/01/02 09:41:35;;;;;;;23.88;16.63;;;10.70;73.20;;;;;;5072275;28;20049;-73
2022/01/02 09:44:01;;;;;;;19.70;13.60;;;10.70;73.20;;;;;;5072401;28;20112;-74
2022/01/02 09:46:28;;;;;;;56.53;41.17;;;10.80;73.10;;;;;;5070915;28;20033;-74
2022/01/02 09:48:55;;;;;;;28.25;21.50;;;10.80;73.00;;;;;;5072118;28;20036;-76
2022/01/02 09:51:24;;;;;;;15.82;12.85;;;10.90;73.00;;;;;;5071471;28;20033;-73
2022/01/02 09:53:50;;;;;;;17.85;15.50;;;11.00;73.20;;;;;;5069887;28;20477;-73
2022/01/02 09:56:17;;;;;;;16.15;13.57;;;11.10;72.70;;;;;;5070915;28;20047;-75
2022/01/02 09:58:44;;;;;;;16.65;12.95;;;11.10;72.30;;;;;;5071081;28;20029;-73
2022/01/02 10:01:39;;;;;;;15.35;12.43;;;11.20;72.10;;;;;;5068086;28;20045;-69
2022/01/02 10:04:05;;;;;;;15.23;12.45;;;11.30;71.70;;;;;;5057042;28;20067;-70
2022/01/02 10:06:37;;;;;;;18.15;13.90;;;11.20;71.90;;;;;;5071496;28;20063;-68
2022/01/02 10:09:03;;;;;;;16.33;13.18;;;11.30;71.90;;;;;;5070570;28;20374;-69
2022/01/02 10:11:29;;;;;;;18.58;14.15;;;11.30;71.20;;;;;;5061233;28;20060;-69
2022/01/02 10:14:01;;;;;;;17.05;13.55;;;11.30;71.30;;;;;;5069185;28;20043;-70
2022/01/02 10:16:40;;;;;;;18.88;13.82;;;11.30;71.60;;;;;;5070822;28;20039;-71
2022/01/02 10:19:20;;;;;;;17.10;12.73;;;11.40;71.40;;;;;;5068812;28;20440;-70
2022/01/02 10:22:12;;;;;;;17.23;13.57;;;11.50;71.10;;;;;;5077909;28;20040;-70
2022/01/02 10:24:42;;;;;;;17.38;12.40;;;11.50;70.40;;;;;;5068300;28;20039;-71
2022/01/02 10:27:14;;;;;;;15.55;12.30;;;11.50;70.90;;;;;;5070691;28;20119;-71
2022/01/02 10:29:55;;;;;;;18.10;13.02;;;11.60;70.70;;;;;;5071548;28;20056;-71
2022/01/02 10:32:27;;;;;;;16.50;12.25;;;11.60;70.50;;;;;;5072005;28;20032;-72
2022/01/02 10:35:05;;;;;;;18.60;12.82;;;11.70;70.30;;;;;;5071783;28;20028;-71
2022/01/02 10:37:31;;;;;;;17.83;12.82;;;12.00;70.10;;;;;;5069576;28;20377;-72
2022/01/02 10:39:56;;;;;;;18.70;11.57;;;12.40;69.60;;;;;;5071016;28;20047;-68
2022/01/02 10:42:23;;;;;;;17.08;12.80;;;13.20;67.70;;;;;;5070886;28;20407;-68
2022/01/02 10:44:49;;;;;;;13.13;11.38;;;13.50;65.80;;;;;;5065815;28;20444;-66
2022/01/02 10:47:21;;;;;;;14.80;12.20;;;14.40;64.00;;;;;;5062377;28;20489;-69
2022/01/02 10:50:04;;;;;;;19.15;12.10;;;15.00;60.60;;;;;;5070104;28;20032;-67
2022/01/02 10:52:41;;;;;;;13.55;11.30;;;14.50;59.50;;;;;;5086390;28;20028;-68
2022/01/02 10:55:18;;;;;;;14.30;11.65;;;13.80;61.50;;;;;;5083094;28;20484;-69
2022/01/02 10:57:47;;;;;;;15.00;10.77;;;13.40;63.00;;;;;;5070891;28;20098;-68
2022/01/02 11:00:15;;;;;;;17.70;11.48;;;13.30;64.00;;;;;;5066894;28;20039;-68
2022/01/02 11:02:41;;;;;;;17.40;11.95;;;13.20;64.20;;;;;;5091353;28;20085;-69
2022/01/02 11:05:10;;;;;;;13.50;11.00;;;13.10;64.70;;;;;;5071400;28;20107;-67
2022/01/02 11:07:42;;;;;;;14.43;10.82;;;13.00;64.90;;;;;;5073413;28;20043;-69
2022/01/02 11:10:10;;;;;;;16.20;11.52;;;13.10;65.00;;;;;;5072164;28;20063;-70
2022/01/02 11:12:39;;;;;;;15.25;11.90;;;13.00;65.00;;;;;;5073530;28;20049;-68
2022/01/02 11:15:26;;;;;;;15.02;11.43;;;13.00;65.20;;;;;;5071020;28;20082;-68
2022/01/02 11:17:52;;;;;;;15.20;11.57;;;13.20;66.00;;;;;;5070597;28;20036;-66
2022/01/02 11:20:20;;;;;;;13.93;12.02;;;13.70;64.50;;;;;;5071534;28;20107;-68
2022/01/02 11:23:07;;;;;;;14.45;11.82;;;13.90;62.70;;;;;;5091765;28;20028;-68
2022/01/02 11:25:42;;;;;;;13.27;11.07;;;13.60;62.70;;;;;;5078618;28;20039;-69
2022/01/02 11:28:26;;;;;;;20.42;14.70;;;13.30;63.60;;;;;;5077955;28;20048;-69
2022/01/02 11:30:53;;;;;;;14.30;12.07;;;13.10;64.80;;;;;;5070254;28;20054;-68
2022/01/02 11:33:30;;;;;;;17.08;13.02;;;13.70;65.30;;;;;;5072501;28;20042;-69
2022/01/02 11:35:58;;;;;;;15.13;11.50;;;14.50;62.70;;;;;;5062031;28;20035;-68
2022/01/02 11:38:26;;;;;;;17.02;12.18;;;14.70;61.10;;;;;;5072531;28;20074;-68
2022/01/02 11:40:57;;;;;;;16.38;11.68;;;14.50;61.00;;;;;;5089108;28;20028;-67
2022/01/02 11:43:35;;;;;;;19.42;13.90;;;14.20;61.00;;;;;;5091126;28;20032;-68
2022/01/02 11:46:48;;;;;;;17.05;12.75;;;13.80;61.80;;;;;;5089230;28;20031;-68
2022/01/02 11:49:17;;;;;;;20.17;14.65;;;13.50;62.80;;;;;;5046739;28;20497;-68
2022/01/02 11:51:56;;;;;;;16.65;12.57;;;13.30;63.90;;;;;;5070225;28;20046;-69
2022/01/02 11:54:40;;;;;;;19.38;12.68;;;13.30;64.40;;;;;;5090129;28;20070;-68
2022/01/02 11:57:11;;;;;;;;;;;13.40;64.40;;;;;;5089354;28;20144;-69
2022/01/02 11:59:40;;;;;;;14.30;11.07;;;13.50;64.00;;;;;;5089438;28;19912;-70
2022/01/02 12:02:09;;;;;;;20.27;12.93;;;13.40;64.00;;;;;;5087559;28;20046;-67
2022/01/02 12:04:53;;;;;;;17.95;12.35;;;13.30;64.30;;;;;;5078507;28;20044;-62
2022/01/02 12:07:41;;;;;;;18.40;13.13;;;13.20;64.70;;;;;;5059792;28;20051;-66
2022/01/02 12:10:16;;;;;;;15.07;11.40;;;13.20;64.90;;;;;;5072512;28;20044;-70
2022/01/02 12:12:59;;;;;;;16.40;10.85;;;13.10;65.00;;;;;;5069213;28;20116;-68
2022/01/02 12:15:45;;;;;;;17.45;12.10;;;13.10;65.00;;;;;;5073651;28;20020;-71
2022/01/02 12:18:26;;;;;;;13.77;9.95;;;13.20;65.10;;;;;;5058443;28;20140;-67
2022/01/02 12:23:33;;;;;;;11.82;9.55;;;13.30;64.80;;;;;;5068494;28;20166;-74
2022/01/02 12:26:21;;;;;;;15.48;10.25;;;13.30;64.60;;;;;;5067261;28;20036;-73
2022/01/02 12:28:58;;;;;;;11.57;9.32;;;13.20;64.70;;;;;;5071494;28;20049;-76
2022/01/02 12:31:38;;;;;;;12.70;8.90;;;13.10;64.70;;;;;;5071589;28;20028;-72
2022/01/02 12:34:19;;;;;;;12.80;8.50;;;13.00;65.10;;;;;;5064617;28;20051;-75
2022/01/02 12:36:47;;;;;;;12.00;8.43;;;13.00;65.20;;;;;;5062525;28;20040;-75
2022/01/02 12:39:16;;;;;;;12.27;9.98;;;13.00;65.30;;;;;;5063078;28;20039;-69
2022/01/02 12:41:44;;;;;;;17.23;10.98;;;12.90;65.40;;;;;;5038287;28;20040;-73
2022/01/02 12:44:16;;;;;;;14.38;9.50;;;12.90;65.80;;;;;;5064525;28;20220;-73
2022/01/02 12:46:44;;;;;;;12.50;9.38;;;12.90;65.50;;;;;;5068144;28;20051;-75
2022/01/02 12:49:16;;;;;;;12.48;9.82;;;12.80;66.50;;;;;;5066864;28;20259;-77
2022/01/02 12:51:45;;;;;;;20.63;11.93;;;12.80;66.00;;;;;;5067589;28;20036;-78
2022/01/02 12:54:13;;;;;;;11.40;9.32;;;12.90;66.00;;;;;;5070018;28;20464;-72
2022/01/02 12:56:48;;;;;;;13.65;9.50;;;12.90;65.90;;;;;;5067081;28;20059;-70
2022/01/02 12:59:21;;;;;;;16.15;10.88;;;12.90;65.80;;;;;;5068072;28;20028;-71